Darstellungsparameter: Aktuell verwendete Einstellungen:
Skalierung der Graphiken ... ?
xyx+y,   Skalierungsfaktor:      Skalierung: Modus: x, Faktor: 1
Darstellungszeitraum ... ?
Vom - - bis: - -   Zeitraum: 28.06.2022 - 28.06.2022
Min/Max/Avg-Anzeige ... ?
Zeige MMA aktuell
Zeige MMA Monat
Zeige MMA alles
Zeige --A aktuell
Zeige --A Monat
Zeige --A alles
Keine MMA-Anzeige
MMA:
Keine MMA-Graphiken
MMA-Basis: 28.06.2022 - 28.06.2022
Quicknavigation für Darstellung... ?
Tage:      1T, 2T, 3T, 5T -1T -2T -3T -5T +1T +2T +3T +5T
Wochen: 1W, 2W, 3W -1W -2W -3W +1W +2W +3W
Monate: 1M, 3M, 6M -1M -3M -6M +1M +3M +6M
Jahre:    1J, 3J, 5J, 10J -1J -3J -5J -10J +1J +3J +5J +10J
Nutze für die Darstellung ... ?
Originaldaten oder Mittelwerte auf ...
Stundenbasis Tagesbasis Wochenbasis
Monatsbasis Jahresbasis      Datenbasis: Original-Daten
Darstellen als:
Statistik (Auto) Statistik J:M      Darstellung:
Zur Graphik,    zurück zur Übersicht aller Sensoren.
 
Tabellarische Datenbersicht: ?
 
Sensor: Nr:Datum:Temp:Abs-Feuchte:Windchill:Wind:
Aussen-T/F 1 28-06-2022 02:00:00 12.9 C 10.59 g/m*3 12.9 C 1.6 km/h
2 28-06-2022 02:05:00 12.9 C 10.59 g/m*3 12.9 C 3.2 km/h
3 28-06-2022 02:10:00 12.9 C 10.59 g/m*3 12.9 C 0 km/h
4 28-06-2022 02:15:00 12.9 C 10.59 g/m*3 12.9 C 1.6 km/h
5 28-06-2022 02:20:00 12.9 C 10.59 g/m*3 12.9 C 0 km/h
6 28-06-2022 02:25:00 12.8 C 10.53 g/m*3 12.8 C 3.2 km/h
7 28-06-2022 02:30:00 12.8 C 10.53 g/m*3 12.8 C 0 km/h
8 28-06-2022 02:35:00 12.8 C 10.64 g/m*3 12.8 C 4.8 km/h
9 28-06-2022 02:40:00 12.9 C 10.71 g/m*3 12.9 C 4.8 km/h
10 28-06-2022 02:45:00 13.1 C 10.84 g/m*3 13.1 C 3.2 km/h
11 28-06-2022 02:50:00 13.3 C 10.98 g/m*3 13.3 C 4.8 km/h
12 28-06-2022 02:55:00 13.4 C 11.04 g/m*3 13.4 C 4.8 km/h
13 28-06-2022 03:00:00 13.4 C 11.04 g/m*3 13.4 C 6.4 km/h
14 28-06-2022 03:05:00 13.4 C 11.04 g/m*3 13.4 C 6.4 km/h
15 28-06-2022 03:10:00 13.5 C 11.11 g/m*3 13.5 C 4.8 km/h
16 28-06-2022 03:15:00 13.6 C 11.18 g/m*3 13.6 C 4.8 km/h
17 28-06-2022 03:20:00 13.6 C 11.3 g/m*3 13.6 C 1.6 km/h
18 28-06-2022 03:25:00 13.6 C 11.18 g/m*3 13.6 C 1.6 km/h
19 28-06-2022 03:30:00 13.4 C 11.04 g/m*3 13.4 C 1.6 km/h
20 28-06-2022 03:35:00 13.4 C 11.04 g/m*3 13.4 C 3.2 km/h
21 28-06-2022 03:40:00 13.3 C 10.98 g/m*3 13.3 C 0 km/h
22 28-06-2022 03:45:00 13.2 C 10.91 g/m*3 13.2 C 0 km/h
23 28-06-2022 03:50:00 13.2 C 10.91 g/m*3 13.2 C 0 km/h
24 28-06-2022 03:55:00 13.2 C 10.91 g/m*3 13.2 C 0 km/h
25 28-06-2022 04:00:00 13.2 C 10.91 g/m*3 13.2 C 0 km/h
Sensor: Nr:Datum:Temp:Abs-Feuchte:Windchill:Wind:
Aussen-T/F 26 28-06-2022 04:05:00 13.2 C 10.91 g/m*3 13.2 C 0 km/h
27 28-06-2022 04:10:00 13.3 C 11.09 g/m*3 13.3 C 0 km/h
28 28-06-2022 04:15:00 13.3 C 11.09 g/m*3 13.3 C 0 km/h
29 28-06-2022 04:20:00 13.4 C 11.16 g/m*3 13.4 C 0 km/h
30 28-06-2022 04:25:00 13.4 C 11.16 g/m*3 13.4 C 0 km/h
31 28-06-2022 04:30:00 13.5 C 11.23 g/m*3 13.5 C 0 km/h
32 28-06-2022 04:35:00 13.6 C 11.3 g/m*3 13.6 C 3.2 km/h
33 28-06-2022 04:40:00 13.6 C 11.3 g/m*3 13.6 C 0 km/h
34 28-06-2022 04:45:00 13.6 C 11.3 g/m*3 13.6 C 0 km/h
35 28-06-2022 04:50:00 13.6 C 11.3 g/m*3 13.6 C 1.6 km/h
36 28-06-2022 04:55:00 13.5 C 11.11 g/m*3 13.5 C 3.2 km/h
37 28-06-2022 05:00:00 13.4 C 11.04 g/m*3 13.4 C 3.2 km/h
38 28-06-2022 05:05:00 13.3 C 10.98 g/m*3 13.3 C 1.6 km/h
39 28-06-2022 05:10:00 13.3 C 11.09 g/m*3 13.3 C 3.2 km/h
40 28-06-2022 05:15:00 13.3 C 10.98 g/m*3 13.3 C 3.2 km/h
41 28-06-2022 05:20:00 13.2 C 10.91 g/m*3 13.2 C 0 km/h
42 28-06-2022 05:25:00 13.2 C 10.91 g/m*3 13.2 C 0 km/h
43 28-06-2022 05:30:00 13.3 C 11.09 g/m*3 13.3 C 0 km/h
44 28-06-2022 05:35:00 13.3 C 11.09 g/m*3 13.3 C 0 km/h
45 28-06-2022 05:40:00 13.3 C 11.09 g/m*3 13.3 C 0 km/h
46 28-06-2022 05:45:00 13.3 C 11.09 g/m*3 13.3 C 1.6 km/h
47 28-06-2022 05:50:00 13.4 C 11.16 g/m*3 13.4 C 0 km/h
48 28-06-2022 05:55:00 13.4 C 11.16 g/m*3 13.4 C 0 km/h
49 28-06-2022 06:00:00 13.4 C 11.16 g/m*3 13.4 C 0 km/h
50 28-06-2022 06:05:00 13.4 C 11.16 g/m*3 13.4 C 1.6 km/h
Sensor: Nr:Datum:Temp:Abs-Feuchte:Windchill:Wind:
Aussen-T/F 51 28-06-2022 06:10:00 13.4 C 11.16 g/m*3 13.4 C 1.6 km/h
52 28-06-2022 06:15:00 13.3 C 11.09 g/m*3 13.3 C 4.8 km/h
53 28-06-2022 06:20:00 13.3 C 11.09 g/m*3 13.3 C 1.6 km/h
54 28-06-2022 06:25:00 13.3 C 11.09 g/m*3 13.3 C 3.2 km/h
55 28-06-2022 06:30:00 13.3 C 11.09 g/m*3 13.3 C 1.6 km/h
56 28-06-2022 06:35:00 13.3 C 11.09 g/m*3 13.3 C 4.8 km/h
57 28-06-2022 06:40:00 13.3 C 11.09 g/m*3 13.3 C 1.6 km/h
58 28-06-2022 06:45:00 13.3 C 11.09 g/m*3 13.3 C 0 km/h
59 28-06-2022 06:50:00 13.3 C 11.09 g/m*3 13.3 C 0 km/h
60 28-06-2022 06:55:00 13.3 C 11.09 g/m*3 13.3 C 0 km/h
61 28-06-2022 07:00:00 13.3 C 11.09 g/m*3 13.3 C 0 km/h
62 28-06-2022 07:05:00 13.3 C 11.09 g/m*3 13.3 C 0 km/h
63 28-06-2022 07:10:00 13.3 C 11.09 g/m*3 13.3 C 0 km/h
64 28-06-2022 07:15:00 13.3 C 11.09 g/m*3 13.3 C 0 km/h
65 28-06-2022 07:20:00 13.4 C 11.16 g/m*3 13.4 C 0 km/h
66 28-06-2022 07:25:00 13.4 C 11.16 g/m*3 13.4 C 0 km/h
67 28-06-2022 07:30:00 13.5 C 11.23 g/m*3 13.5 C 0 km/h
68 28-06-2022 07:35:00 13.6 C 11.3 g/m*3 13.6 C 0 km/h
69 28-06-2022 07:40:00 13.6 C 11.3 g/m*3 13.6 C 0 km/h
70 28-06-2022 07:45:00 13.6 C 11.3 g/m*3 13.6 C 0 km/h
71 28-06-2022 07:50:00 13.7 C 11.37 g/m*3 13.7 C 0 km/h
72 28-06-2022 07:55:00 13.7 C 11.37 g/m*3 13.7 C 0 km/h
73 28-06-2022 08:00:00 13.8 C 11.44 g/m*3 13.8 C 0 km/h
74 28-06-2022 08:05:00 13.8 C 11.44 g/m*3 13.8 C 0 km/h
75 28-06-2022 08:10:00 13.8 C 11.44 g/m*3 13.8 C 0 km/h
Sensor: Nr:Datum:Temp:Abs-Feuchte:Windchill:Wind:
Aussen-T/F 76 28-06-2022 08:15:00 13.9 C 11.51 g/m*3 13.9 C 1.6 km/h
77 28-06-2022 08:20:00 13.9 C 11.51 g/m*3 13.9 C 0 km/h
78 28-06-2022 08:25:00 13.9 C 11.51 g/m*3 13.9 C 0 km/h
79 28-06-2022 08:30:00 13.9 C 11.51 g/m*3 13.9 C 0 km/h
80 28-06-2022 08:35:00 14 C 11.58 g/m*3 14 C 1.6 km/h
81 28-06-2022 08:40:00 14.1 C 11.65 g/m*3 14.1 C 0 km/h
82 28-06-2022 08:45:00 14.2 C 11.72 g/m*3 14.2 C 1.6 km/h
83 28-06-2022 08:50:00 14.2 C 11.72 g/m*3 14.2 C 1.6 km/h
84 28-06-2022 08:55:00 14.3 C 11.79 g/m*3 14.3 C 0 km/h
85 28-06-2022 09:00:00 14.3 C 11.79 g/m*3 14.3 C 1.6 km/h
86 28-06-2022 09:05:00 14.4 C 11.87 g/m*3 14.4 C 0 km/h
87 28-06-2022 09:10:00 14.4 C 11.87 g/m*3 14.4 C 4.8 km/h
88 28-06-2022 09:15:00 14.4 C 11.87 g/m*3 14.4 C 3.2 km/h
89 28-06-2022 09:20:00 14.6 C 12.01 g/m*3 14.6 C 1.6 km/h
90 28-06-2022 09:25:00 14.6 C 12.01 g/m*3 14.6 C 1.6 km/h
91 28-06-2022 09:30:00 14.7 C 12.09 g/m*3 14.7 C 0 km/h
92 28-06-2022 09:35:00 14.8 C 12.16 g/m*3 14.8 C 0 km/h
93 28-06-2022 09:40:00 14.9 C 12.24 g/m*3 14.9 C 4.8 km/h
94 28-06-2022 09:45:00 15.1 C 12.39 g/m*3 15.1 C 6.4 km/h
95 28-06-2022 09:50:00 15.2 C 12.33 g/m*3 15.2 C 4.8 km/h
96 28-06-2022 09:55:00 15.4 C 12.48 g/m*3 15.4 C 3.2 km/h
97 28-06-2022 10:00:00 15.6 C 12.63 g/m*3 15.6 C 1.6 km/h
98 28-06-2022 10:05:00 15.8 C 12.65 g/m*3 15.8 C 1.6 km/h
99 28-06-2022 10:10:00 16.1 C 12.88 g/m*3 16.1 C 0 km/h
100 28-06-2022 10:15:00 16.3 C 12.9 g/m*3 16.3 C 1.6 km/h
Sensor: Nr:Datum:Temp:Abs-Feuchte:Windchill:Wind:
Aussen-T/F 101 28-06-2022 10:20:00 16.4 C 12.98 g/m*3 16.4 C 1.6 km/h
102 28-06-2022 10:25:00 16.7 C 13.07 g/m*3 16.7 C 1.6 km/h
103 28-06-2022 10:30:00 16.8 C 13.01 g/m*3 16.8 C 1.6 km/h
104 28-06-2022 10:35:00 17.1 C 13.1 g/m*3 17.1 C 3.2 km/h
105 28-06-2022 10:40:00 17.3 C 13.26 g/m*3 17.3 C 1.6 km/h
106 28-06-2022 10:45:00 17.6 C 13.35 g/m*3 17.6 C 0 km/h
107 28-06-2022 10:50:00 17.8 C 13.2 g/m*3 17.8 C 0 km/h
108 28-06-2022 10:55:00 18 C 12.75 g/m*3 18 C 1.6 km/h
109 28-06-2022 11:00:00 18.3 C 12.51 g/m*3 18.3 C 6.4 km/h
110 28-06-2022 11:05:00 18.7 C 12.65 g/m*3 18.7 C 4.8 km/h
111 28-06-2022 11:10:00 19.1 C 12.46 g/m*3 19.1 C 4.8 km/h
112 28-06-2022 11:15:00 19.3 C 11.78 g/m*3 19.3 C 6.4 km/h
113 28-06-2022 11:20:00 19.6 C 11.82 g/m*3 19.6 C 9.7 km/h
114 28-06-2022 11:25:00 19.9 C 11.85 g/m*3 19.9 C 9.7 km/h
115 28-06-2022 11:30:00 20.3 C 12.14 g/m*3 20.3 C 8.1 km/h
116 28-06-2022 11:35:00 20.6 C 11.81 g/m*3 20.6 C 14.5 km/h
117 28-06-2022 11:40:00 20.8 C 11.59 g/m*3 20.8 C 11.3 km/h
118 28-06-2022 11:45:00 20.9 C 11.66 g/m*3 20.9 C 11.3 km/h
119 28-06-2022 11:50:00 21.2 C 11.3 g/m*3 21.2 C 14.5 km/h
120 28-06-2022 11:55:00 21.4 C 11.06 g/m*3 21.4 C 11.3 km/h
121 28-06-2022 12:00:00 21.6 C 10.81 g/m*3 21.6 C 6.4 km/h
122 28-06-2022 12:05:00 21.8 C 11.7 g/m*3 21.8 C 0 km/h
123 28-06-2022 12:10:00 22.1 C 11.32 g/m*3 22.1 C 11.3 km/h
124 28-06-2022 12:15:00 22.1 C 11.32 g/m*3 22.1 C 11.3 km/h
125 28-06-2022 12:20:00 22.2 C 11.19 g/m*3 22.2 C 11.3 km/h
Sensor: Nr:Datum:Temp:Abs-Feuchte:Windchill:Wind:
Aussen-T/F 126 28-06-2022 12:25:00 22.3 C 11.06 g/m*3 22.3 C 8.1 km/h
127 28-06-2022 12:30:00 22.3 C 11.45 g/m*3 22.3 C 6.4 km/h
128 28-06-2022 12:35:00 22.6 C 12.05 g/m*3 22.6 C 6.4 km/h
129 28-06-2022 12:40:00 22.8 C 11.58 g/m*3 22.8 C 3.2 km/h
130 28-06-2022 12:45:00 23.1 C 11.37 g/m*3 23.1 C 12.9 km/h
131 28-06-2022 12:50:00 23.1 C 10.54 g/m*3 23.1 C 9.7 km/h
132 28-06-2022 12:55:00 23.1 C 10.54 g/m*3 23.1 C 8.1 km/h
133 28-06-2022 13:00:00 23.1 C 11.16 g/m*3 23.1 C 9.7 km/h
134 28-06-2022 13:05:00 23.2 C 11.23 g/m*3 23.2 C 8.1 km/h
135 28-06-2022 13:10:00 23.4 C 11.35 g/m*3 23.4 C 3.2 km/h
136 28-06-2022 13:15:00 23.6 C 11.48 g/m*3 23.6 C 6.4 km/h
137 28-06-2022 13:20:00 23.7 C 10.91 g/m*3 23.7 C 9.7 km/h
138 28-06-2022 13:25:00 23.7 C 10.91 g/m*3 23.7 C 6.4 km/h
139 28-06-2022 13:30:00 23.7 C 11.34 g/m*3 23.7 C 4.8 km/h
140 28-06-2022 13:35:00 23.6 C 11.48 g/m*3 23.6 C 0 km/h
141 28-06-2022 13:40:00 23.6 C 11.06 g/m*3 23.6 C 0 km/h
142 28-06-2022 13:45:00 23.9 C 12.11 g/m*3 23.9 C 1.6 km/h
143 28-06-2022 13:50:00 24.3 C 11.51 g/m*3 24.3 C 3.2 km/h
144 28-06-2022 13:55:00 24.6 C 11.03 g/m*3 24.6 C 9.7 km/h
145 28-06-2022 14:00:00 24.8 C 11.38 g/m*3 24.8 C 8.1 km/h
146 28-06-2022 14:05:00 24.9 C 10.53 g/m*3 24.9 C 8.1 km/h
147 28-06-2022 14:10:00 24.7 C 10.41 g/m*3 24.7 C 12.9 km/h
148 28-06-2022 14:15:00 24.5 C 10.3 g/m*3 24.5 C 12.9 km/h
149 28-06-2022 14:20:00 24.4 C 10.01 g/m*3 24.4 C 9.7 km/h
150 28-06-2022 14:25:00 24.3 C 9.96 g/m*3 24.3 C 11.3 km/h
Sensor: Nr:Datum:Temp:Abs-Feuchte:Windchill:Wind:
Aussen-T/F 151 28-06-2022 14:30:00 24.4 C 10.24 g/m*3 24.4 C 12.9 km/h
152 28-06-2022 14:35:00 24.6 C 10.35 g/m*3 24.6 C 9.7 km/h
153 28-06-2022 14:40:00 24.8 C 10.47 g/m*3 24.8 C 9.7 km/h
154 28-06-2022 14:45:00 25 C 10.59 g/m*3 25 C 11.3 km/h
155 28-06-2022 14:50:00 25.1 C 10.19 g/m*3 25.1 C 11.3 km/h
156 28-06-2022 14:55:00 24.8 C 10.47 g/m*3 24.8 C 11.3 km/h
157 28-06-2022 15:00:00 24.9 C 10.53 g/m*3 24.9 C 9.7 km/h
158 28-06-2022 15:05:00 25.2 C 10.24 g/m*3 25.2 C 9.7 km/h
159 28-06-2022 15:10:00 25.3 C 10.77 g/m*3 25.3 C 6.4 km/h
160 28-06-2022 15:15:00 25.6 C 11.9 g/m*3 25.6 C 9.7 km/h
161 28-06-2022 15:20:00 26 C 10.47 g/m*3 26 C 11.3 km/h
162 28-06-2022 15:25:00 25.9 C 9.68 g/m*3 25.9 C 11.3 km/h
163 28-06-2022 15:30:00 25.7 C 10.29 g/m*3 25.7 C 9.7 km/h
164 28-06-2022 15:35:00 25.7 C 10.53 g/m*3 25.7 C 6.4 km/h
165 28-06-2022 15:40:00 26 C 10.47 g/m*3 26 C 8.1 km/h
166 28-06-2022 15:45:00 26.3 C 10.89 g/m*3 26.3 C 6.4 km/h
167 28-06-2022 15:50:00 26.6 C 10.32 g/m*3 26.6 C 8.1 km/h
168 28-06-2022 15:55:00 26.8 C 10.18 g/m*3 26.8 C 11.3 km/h
169 28-06-2022 16:00:00 26.7 C 10.38 g/m*3 26.7 C 11.3 km/h
170 28-06-2022 16:05:00 26.3 C 10.15 g/m*3 26.3 C 11.3 km/h
171 28-06-2022 16:10:00 26.3 C 10.89 g/m*3 26.3 C 1.6 km/h
172 28-06-2022 16:15:00 26.6 C 10.57 g/m*3 26.6 C 9.7 km/h
173 28-06-2022 16:20:00 26.8 C 10.18 g/m*3 26.8 C 8.1 km/h
174 28-06-2022 16:25:00 26.9 C 10.49 g/m*3 26.9 C 12.9 km/h
175 28-06-2022 16:30:00 26.9 C 10.24 g/m*3 26.9 C 12.9 km/h
Sensor: Nr:Datum:Temp:Abs-Feuchte:Windchill:Wind:
Aussen-T/F 176 28-06-2022 16:35:00 26.9 C 11.01 g/m*3 26.9 C 9.7 km/h
177 28-06-2022 16:40:00 26.9 C 10.49 g/m*3 26.9 C 11.3 km/h
178 28-06-2022 16:45:00 26.7 C 9.87 g/m*3 26.7 C 14.5 km/h
179 28-06-2022 16:50:00 26.6 C 10.07 g/m*3 26.6 C 8.1 km/h
180 28-06-2022 16:55:00 26.6 C 10.32 g/m*3 26.6 C 11.3 km/h
181 28-06-2022 17:00:00 26.6 C 10.07 g/m*3 26.6 C 11.3 km/h
182 28-06-2022 17:05:00 26.7 C 10.12 g/m*3 26.7 C 9.7 km/h
183 28-06-2022 17:10:00 26.7 C 9.87 g/m*3 26.7 C 9.7 km/h
184 28-06-2022 17:15:00 26.9 C 10.75 g/m*3 26.9 C 3.2 km/h
185 28-06-2022 17:20:00 27.3 C 10.2 g/m*3 27.3 C 12.9 km/h
186 28-06-2022 17:25:00 27.4 C 10.26 g/m*3 27.4 C 12.9 km/h
187 28-06-2022 17:30:00 27.5 C 10.58 g/m*3 27.5 C 8.1 km/h
188 28-06-2022 17:35:00 27.6 C 10.11 g/m*3 27.6 C 14.5 km/h
189 28-06-2022 17:40:00 27.3 C 10.2 g/m*3 27.3 C 11.3 km/h
190 28-06-2022 17:45:00 27.1 C 10.35 g/m*3 27.1 C 11.3 km/h
191 28-06-2022 17:50:00 27.1 C 10.09 g/m*3 27.1 C 9.7 km/h
192 28-06-2022 17:55:00 27.2 C 11.19 g/m*3 27.2 C 3.2 km/h
193 28-06-2022 18:00:00 27.3 C 10.47 g/m*3 27.3 C 8.1 km/h
194 28-06-2022 18:05:00 27.2 C 10.67 g/m*3 27.2 C 6.4 km/h
195 28-06-2022 18:10:00 27.1 C 10.87 g/m*3 27.1 C 4.8 km/h
196 28-06-2022 18:15:00 27.3 C 10.73 g/m*3 27.3 C 4.8 km/h
197 28-06-2022 18:20:00 27.2 C 10.93 g/m*3 27.2 C 11.3 km/h
198 28-06-2022 18:25:00 27.1 C 11.13 g/m*3 27.1 C 11.3 km/h
199 28-06-2022 18:30:00 26.9 C 10.75 g/m*3 26.9 C 8.1 km/h
200 28-06-2022 18:35:00 26.4 C 10.46 g/m*3 26.4 C 11.3 km/h
Sensor: Nr:Datum:Temp:Abs-Feuchte:Windchill:Wind:
Aussen-T/F 201 28-06-2022 18:40:00 26.2 C 10.83 g/m*3 26.2 C 9.7 km/h
202 28-06-2022 18:45:00 25.9 C 10.89 g/m*3 25.9 C 6.4 km/h
203 28-06-2022 18:50:00 25.8 C 10.83 g/m*3 25.8 C 8.1 km/h
204 28-06-2022 18:55:00 25.7 C 11.01 g/m*3 25.7 C 6.4 km/h
205 28-06-2022 19:00:00 25.7 C 12.93 g/m*3 25.7 C 4.8 km/h
206 28-06-2022 19:05:00 25.6 C 12.62 g/m*3 25.6 C 3.2 km/h
207 28-06-2022 19:10:00 25.5 C 12.55 g/m*3 25.5 C 0 km/h
208 28-06-2022 19:15:00 25.5 C 12.07 g/m*3 25.5 C 0 km/h
209 28-06-2022 19:20:00 25.4 C 11.54 g/m*3 25.4 C 4.8 km/h
210 28-06-2022 19:25:00 25.4 C 14.13 g/m*3 25.4 C 3.2 km/h
211 28-06-2022 19:30:00 25.2 C 12.11 g/m*3 25.2 C 1.6 km/h
212 28-06-2022 19:35:00 25.2 C 12.34 g/m*3 25.2 C 6.4 km/h
213 28-06-2022 19:40:00 25.1 C 11.57 g/m*3 25.1 C 6.4 km/h
214 28-06-2022 19:45:00 25.1 C 12.5 g/m*3 25.1 C 3.2 km/h
215 28-06-2022 19:50:00 25.2 C 13.97 g/m*3 25.2 C 1.6 km/h
216 28-06-2022 19:55:00 25 C 13.58 g/m*3 25 C 0 km/h
217 28-06-2022 20:00:00 24.8 C 13.88 g/m*3 24.8 C 0 km/h
218 28-06-2022 20:05:00 24.5 C 14.1 g/m*3 24.5 C 0 km/h
219 28-06-2022 20:10:00 24.2 C 13.86 g/m*3 24.2 C 0 km/h
220 28-06-2022 20:15:00 24 C 14.14 g/m*3 24 C 0 km/h
221 28-06-2022 20:20:00 23.8 C 13.98 g/m*3 23.8 C 0 km/h
222 28-06-2022 20:25:00 23.8 C 13.98 g/m*3 23.8 C 0 km/h
223 28-06-2022 20:30:00 23.7 C 13.48 g/m*3 23.7 C 0 km/h
224 28-06-2022 20:35:00 23.6 C 13.61 g/m*3 23.6 C 0 km/h
225 28-06-2022 20:40:00 23.6 C 13.82 g/m*3 23.6 C 0 km/h
Sensor: Nr:Datum:Temp:Abs-Feuchte:Windchill:Wind:
Aussen-T/F 226 28-06-2022 20:45:00 23.5 C 13.75 g/m*3 23.5 C 3.2 km/h
227 28-06-2022 20:50:00 23.5 C 13.53 g/m*3 23.5 C 0 km/h
228 28-06-2022 20:55:00 23.4 C 13.25 g/m*3 23.4 C 0 km/h
229 28-06-2022 21:00:00 23.3 C 13.17 g/m*3 23.3 C 4.8 km/h
230 28-06-2022 21:05:00 23.1 C 13.23 g/m*3 23.1 C 0 km/h
231 28-06-2022 21:10:00 22.9 C 13.08 g/m*3 22.9 C 0 km/h
232 28-06-2022 21:15:00 22.6 C 13.06 g/m*3 22.6 C 1.6 km/h
233 28-06-2022 21:20:00 22.3 C 12.83 g/m*3 22.3 C 4.8 km/h
234 28-06-2022 21:25:00 22.1 C 13.08 g/m*3 22.1 C 0 km/h
235 28-06-2022 21:30:00 21.8 C 12.85 g/m*3 21.8 C 1.6 km/h
236 28-06-2022 21:35:00 21.5 C 12.82 g/m*3 21.5 C 1.6 km/h
237 28-06-2022 21:40:00 21.2 C 12.79 g/m*3 21.2 C 0 km/h
238 28-06-2022 21:45:00 20.9 C 12.38 g/m*3 20.9 C 0 km/h
239 28-06-2022 21:50:00 20.7 C 12.24 g/m*3 20.7 C 0 km/h
240 28-06-2022 21:55:00 20.4 C 11.85 g/m*3 20.4 C 0 km/h
241 28-06-2022 22:00:00 20.2 C 11.89 g/m*3 20.2 C 0 km/h
242 28-06-2022 22:05:00 20.1 C 11.99 g/m*3 20.1 C 1.6 km/h
243 28-06-2022 22:10:00 19.9 C 12.03 g/m*3 19.9 C 0 km/h
244 28-06-2022 22:15:00 19.8 C 12.13 g/m*3 19.8 C 0 km/h
245 28-06-2022 22:20:00 19.7 C 12.4 g/m*3 19.7 C 0 km/h
246 28-06-2022 22:25:00 19.6 C 12.32 g/m*3 19.6 C 0 km/h
247 28-06-2022 22:30:00 19.2 C 12.04 g/m*3 19.2 C 0 km/h
248 28-06-2022 22:35:00 18.9 C 12.15 g/m*3 18.9 C 0 km/h
249 28-06-2022 22:40:00 18.7 C 12.17 g/m*3 18.7 C 0 km/h
250 28-06-2022 22:45:00 18.6 C 12.1 g/m*3 18.6 C 0 km/h
Sensor: Nr:Datum:Temp:Abs-Feuchte:Windchill:Wind:
Aussen-T/F 251 28-06-2022 22:50:00 18.3 C 12.04 g/m*3 18.3 C 0 km/h
252 28-06-2022 22:55:00 18.2 C 11.97 g/m*3 18.2 C 0 km/h
253 28-06-2022 23:00:00 17.9 C 11.76 g/m*3 17.9 C 0 km/h
254 28-06-2022 23:05:00 17.7 C 11.77 g/m*3 17.7 C 0 km/h
255 28-06-2022 23:10:00 17.6 C 11.85 g/m*3 17.6 C 0 km/h
256 28-06-2022 23:15:00 17.4 C 11.71 g/m*3 17.4 C 0 km/h
257 28-06-2022 23:20:00 17.3 C 11.64 g/m*3 17.3 C 0 km/h
258 28-06-2022 23:25:00 17.2 C 11.72 g/m*3 17.2 C 0 km/h
259 28-06-2022 23:30:00 17.1 C 11.79 g/m*3 17.1 C 0 km/h
260 28-06-2022 23:35:00 17.1 C 11.79 g/m*3 17.1 C 0 km/h
261 28-06-2022 23:40:00 16.9 C 11.79 g/m*3 16.9 C 0 km/h
262 28-06-2022 23:45:00 16.9 C 11.65 g/m*3 16.9 C 0 km/h
263 28-06-2022 23:50:00 16.8 C 11.58 g/m*3 16.8 C 0 km/h
264 28-06-2022 23:55:00 16.7 C 11.51 g/m*3 16.7 C 0 km/h

Legende:
   Min
   Max


Maximal/Minimal-Werte vom 28.06.2022 - 28.06.2022

Sensor Min Max Avg
Temp
(Aussen-T/F)
12.8 °C
28-06-2022  02:25:00
27.6 °C
28-06-2022  17:35:00
19.55 °C
Abs-Feuchte
(Aussen-T/F)
9.68 g/m*3
28-06-2022  15:25:00
14.14 g/m*3
28-06-2022  20:15:00
11.45 g/m*3
Windchill
(Aussen-T/F)
12.8 C
28-06-2022  02:25:00
27.6 C
28-06-2022  17:35:00
19.48 C

Die Daten stammen von einer Davis Vantage Pro 2 Wetter-Station und werden unter Linux mit der Software wview2wettercgi und aufbereitet. Alle Angaben erfolgen ohne Gewähr für ihre Vollständigkeit oder Richtigkeit.
Kontakt: Rainer Krienke krienke@uni-koblenz.de . Meine Webseiten an der Uni Koblenz oder privat.
Version: $Revision: 0.78 $